Time;durP1;ratioP1;P1;durP2;ratioP2;P2;SDS_P1;SDS_P2;PMS_P1;PMS_P2;Temp;Humidity;BMP_temperature;BMP_pressure;BME280_temperature;BME280_humidity;BME280_pressure;Samples;Min_cycle;Max_cycle;Signal;HPM_P1;HPM_P2
2024/04/22 00:01:09;;;;;;;4.70;4.13;;;5.70;99.90;;;;;;5431980;26;20232;-73
2024/04/22 00:03:38;;;;;;;8.52;4.63;;;5.70;99.90;;;;;;5439369;26;21236;-73
2024/04/22 00:06:04;;;;;;;5.97;4.43;;;5.70;99.90;;;;;;5454143;26;20275;-73
2024/04/22 00:08:33;;;;;;;5.97;4.38;;;5.70;99.90;;;;;;5451888;26;20250;-73
2024/04/22 00:11:03;;;;;;;5.40;4.03;;;5.70;99.90;;;;;;5452615;26;20274;-72
2024/04/22 00:13:31;;;;;;;6.68;4.75;;;5.70;99.90;;;;;;5453839;26;20355;-72
2024/04/22 00:15:58;;;;;;;6.05;5.00;;;5.70;99.90;;;;;;5452556;26;20601;-74
2024/04/22 00:18:26;;;;;;;7.63;4.70;;;5.60;99.90;;;;;;5452255;26;20288;-73
2024/04/22 00:20:52;;;;;;;5.70;4.65;;;5.60;99.90;;;;;;5454421;26;20271;-73
2024/04/22 00:23:22;;;;;;;5.15;4.18;;;5.60;99.90;;;;;;5454452;26;20232;-72
2024/04/22 00:25:48;;;;;;;6.15;4.32;;;5.60;99.90;;;;;;5454365;26;20286;-73
2024/04/22 00:28:19;;;;;;;7.50;5.63;;;5.60;99.90;;;;;;5453777;26;20632;-75
2024/04/22 00:30:48;;;;;;;5.90;4.57;;;5.60;99.90;;;;;;5482341;21;20256;-80
2024/04/22 00:33:28;;;;;;;5.50;4.63;;;5.50;99.90;;;;;;5478544;26;20305;-81
2024/04/22 00:35:56;;;;;;;6.80;4.63;;;5.50;99.90;;;;;;5478056;26;20208;-81
2024/04/22 00:38:25;;;;;;;6.55;4.10;;;5.50;99.90;;;;;;5462214;26;20263;-79
2024/04/22 00:40:53;;;;;;;8.10;5.63;;;5.50;99.90;;;;;;5475335;25;20309;-80
2024/04/22 00:43:36;;;;;;;11.50;5.20;;;5.50;99.90;;;;;;5430111;26;20248;-82
2024/04/22 00:46:04;;;;;;;5.65;4.10;;;5.50;99.90;;;;;;5453805;26;20240;-82
2024/04/22 00:48:33;;;;;;;6.72;4.90;;;5.50;99.90;;;;;;5444496;26;20232;-80
2024/04/22 00:50:59;;;;;;;7.20;4.88;;;5.40;99.90;;;;;;5459754;26;20244;-81
2024/04/22 00:53:29;;;;;;;6.65;4.85;;;5.40;99.90;;;;;;5455199;26;20626;-81
2024/04/22 00:55:55;;;;;;;6.78;4.97;;;5.50;99.90;;;;;;5441517;26;20228;-82
2024/04/22 00:58:25;;;;;;;7.30;4.45;;;5.40;99.90;;;;;;5443804;26;20304;-81
2024/04/22 01:00:56;;;;;;;5.55;4.80;;;5.40;99.90;;;;;;5459823;26;20232;-80
2024/04/22 01:03:25;;;;;;;8.85;5.40;;;5.40;99.90;;;;;;5454910;26;20279;-80
2024/04/22 01:05:52;;;;;;;6.15;5.05;;;5.50;99.90;;;;;;5471773;25;20228;-81
2024/04/22 01:08:21;;;;;;;11.05;5.63;;;5.50;99.90;;;;;;5461888;26;20248;-81
2024/04/22 01:10:47;;;;;;;8.93;5.53;;;5.30;99.90;;;;;;5467520;26;20233;-80
2024/04/22 01:13:16;;;;;;;8.10;6.03;;;5.40;99.90;;;;;;5457997;26;20216;-80
2024/04/22 01:15:42;;;;;;;8.63;5.60;;;5.30;99.90;;;;;;5469706;26;20226;-79
2024/04/22 01:18:18;;;;;;;5.70;4.65;;;5.40;99.90;;;;;;5470698;26;20271;-80
2024/04/22 01:20:44;;;;;;;6.00;5.25;;;5.40;99.90;;;;;;5459907;26;20727;-81
2024/04/22 01:23:15;;;;;;;7.10;5.00;;;5.40;99.90;;;;;;5462845;26;20228;-81
2024/04/22 01:25:53;;;;;;;8.00;4.82;;;5.40;99.90;;;;;;5461013;26;20287;-81
2024/04/22 01:28:21;;;;;;;7.85;5.88;;;5.30;99.90;;;;;;5447798;26;20303;-81
2024/04/22 01:30:47;;;;;;;7.93;6.00;;;5.30;99.90;;;;;;5469666;26;20298;-81
2024/04/22 01:33:16;;;;;;;7.30;5.55;;;5.30;99.90;;;;;;5457756;26;20748;-80
2024/04/22 01:35:42;;;;;;;7.55;5.82;;;5.30;99.90;;;;;;5471858;26;20236;-81
2024/04/22 01:38:11;;;;;;;6.93;4.70;;;5.30;99.90;;;;;;5468082;26;20266;-81
2024/04/22 01:40:39;;;;;;;6.03;5.32;;;5.30;99.90;;;;;;5468237;26;20244;-82
2024/04/22 01:43:08;;;;;;;7.82;5.30;;;5.30;99.90;;;;;;5451960;26;20335;-81
2024/04/22 01:45:34;;;;;;;7.90;5.53;;;5.30;99.90;;;;;;5471148;26;20232;-81
2024/04/22 01:48:02;;;;;;;7.70;6.13;;;5.30;99.90;;;;;;5461336;26;20326;-81
2024/04/22 01:50:28;;;;;;;6.50;5.40;;;5.30;99.90;;;;;;5460092;26;20298;-81
2024/04/22 01:52:57;;;;;;;6.88;5.53;;;5.30;99.90;;;;;;5440505;26;20603;-81
2024/04/22 01:55:23;;;;;;;7.20;5.47;;;5.30;99.90;;;;;;5438164;26;20638;-82
2024/04/22 01:57:55;;;;;;;6.88;5.65;;;5.20;99.90;;;;;;5453107;26;20266;-81
2024/04/22 02:00:24;;;;;;;8.40;6.25;;;5.20;99.90;;;;;;5455598;26;20322;-82
2024/04/22 02:02:53;;;;;;;6.43;5.60;;;5.20;99.90;;;;;;5455383;26;20244;-82
2024/04/22 02:05:19;;;;;;;7.40;6.10;;;5.30;99.90;;;;;;5459850;26;20575;-82
2024/04/22 02:07:47;;;;;;;6.68;4.72;;;5.20;99.90;;;;;;5447508;26;20282;-82
2024/04/22 02:10:13;;;;;;;5.93;5.03;;;5.10;99.90;;;;;;5462851;26;20286;-81
2024/04/22 02:12:42;;;;;;;8.25;6.10;;;5.10;99.90;;;;;;5449984;26;20698;-82
2024/04/22 02:15:11;;;;;;;8.52;5.40;;;5.10;99.90;;;;;;5454279;26;20774;-81
2024/04/22 02:17:39;;;;;;;9.98;7.22;;;5.10;99.90;;;;;;5438464;26;20245;-81
2024/04/22 02:20:06;;;;;;;7.15;5.07;;;5.10;99.90;;;;;;5459029;26;20228;-81
2024/04/22 02:22:34;;;;;;;7.15;5.65;;;5.00;99.90;;;;;;5459886;26;20236;-82
2024/04/22 02:25:00;;;;;;;7.53;6.03;;;5.10;99.90;;;;;;5458642;26;20278;-81
2024/04/22 02:27:29;;;;;;;7.73;5.70;;;5.00;99.90;;;;;;5447506;26;20250;-82
2024/04/22 02:29:55;;;;;;;8.40;5.63;;;5.10;99.90;;;;;;5443613;26;20469;-81
2024/04/22 02:32:26;;;;;;;7.43;6.05;;;5.10;99.90;;;;;;5459730;26;20340;-81
2024/04/22 02:34:52;;;;;;;8.13;6.28;;;5.20;99.90;;;;;;5459378;26;20562;-81
2024/04/22 02:37:21;;;;;;;12.33;8.30;;;5.10;99.90;;;;;;5449999;26;20300;-81
2024/04/22 02:39:47;;;;;;;7.63;6.30;;;5.10;99.90;;;;;;5471840;26;20462;-79
2024/04/22 02:42:16;;;;;;;10.77;7.85;;;5.00;99.90;;;;;;5476022;26;20452;-80
2024/04/22 02:44:42;;;;;;;6.72;6.00;;;5.00;99.90;;;;;;5476015;26;20243;-81
2024/04/22 02:47:12;;;;;;;7.28;6.45;;;5.00;99.90;;;;;;5475817;26;20274;-81
2024/04/22 02:49:40;;;;;;;9.38;7.35;;;5.00;99.90;;;;;;5476371;26;20224;-80
2024/04/22 02:52:09;;;;;;;7.55;6.05;;;5.00;99.90;;;;;;5458804;26;20307;-81
2024/04/22 02:54:35;;;;;;;8.35;7.20;;;4.90;99.90;;;;;;5479524;25;20220;-81
2024/04/22 02:57:04;;;;;;;10.07;6.47;;;4.80;99.90;;;;;;5479718;26;20224;-81
2024/04/22 02:59:30;;;;;;;9.93;6.72;;;4.80;99.90;;;;;;5479420;26;20293;-80
2024/04/22 03:01:59;;;;;;;10.25;7.75;;;4.70;99.90;;;;;;5479794;26;20216;-80
2024/04/22 03:04:24;;;;;;;11.77;7.50;;;4.80;99.90;;;;;;5479959;26;20212;-79
2024/04/22 03:06:56;;;;;;;9.70;7.97;;;4.70;99.90;;;;;;5463358;26;20272;-80
2024/04/22 03:09:22;;;;;;;10.05;8.65;;;4.70;99.90;;;;;;5442596;26;20450;-80
2024/04/22 03:11:51;;;;;;;7.90;6.63;;;4.70;99.90;;;;;;5472957;26;20318;-81
2024/04/22 03:14:17;;;;;;;9.70;7.80;;;4.60;99.90;;;;;;5470505;26;20232;-82
2024/04/22 03:16:45;;;;;;;10.45;7.70;;;4.60;99.90;;;;;;5462636;26;20243;-82
2024/04/22 03:19:11;;;;;;;11.25;8.13;;;4.60;99.90;;;;;;5446614;26;20236;-81
2024/04/22 03:21:40;;;;;;;9.27;7.20;;;4.60;99.90;;;;;;5460779;26;20270;-81
2024/04/22 03:24:08;;;;;;;9.48;7.25;;;4.60;99.90;;;;;;5460027;26;20477;-81
2024/04/22 03:26:37;;;;;;;10.18;6.88;;;4.60;99.90;;;;;;5465989;26;20309;-81
2024/04/22 03:29:03;;;;;;;10.38;7.15;;;4.60;99.90;;;;;;5460839;26;20279;-82
2024/04/22 03:31:32;;;;;;;10.00;6.93;;;4.50;99.90;;;;;;5462107;26;20288;-81
2024/04/22 03:33:59;;;;;;;11.40;7.72;;;4.50;99.90;;;;;;5449389;26;20266;-81
2024/04/22 03:36:33;;;;;;;9.23;7.85;;;4.50;99.90;;;;;;5442302;26;20240;-82
2024/04/22 03:39:02;;;;;;;12.88;7.85;;;4.40;99.90;;;;;;5460234;26;20883;-80
2024/04/22 03:41:33;;;;;;;12.00;7.97;;;4.40;99.90;;;;;;5446113;26;20232;-81
2024/04/22 03:44:01;;;;;;;10.63;7.25;;;4.40;99.90;;;;;;5448512;26;20229;-81
2024/04/22 03:52:00;;;;;;;13.65;8.80;;;4.30;99.90;;;;;;5455572;26;20279;-82
2024/04/22 03:54:28;;;;;;;10.05;7.65;;;4.20;99.90;;;;;;5456184;26;20274;-81
2024/04/22 03:56:57;;;;;;;10.02;7.00;;;4.20;99.90;;;;;;5458062;26;20231;-80
2024/04/22 03:59:26;;;;;;;9.55;7.55;;;4.20;99.90;;;;;;5461152;26;20291;-81
2024/04/22 04:01:54;;;;;;;9.95;7.55;;;4.10;99.90;;;;;;5458472;26;20239;-82
2024/04/22 04:04:20;;;;;;;10.00;7.30;;;4.10;99.90;;;;;;5460896;26;20611;-82
2024/04/22 04:06:49;;;;;;;9.07;6.20;;;4.10;99.90;;;;;;5460400;26;20239;-81
2024/04/22 04:09:15;;;;;;;10.18;6.80;;;4.20;99.90;;;;;;5446153;26;20236;-81
2024/04/22 04:11:44;;;;;;;14.57;8.20;;;4.10;99.90;;;;;;5463224;26;20278;-81
2024/04/22 04:14:12;;;;;;;11.80;7.35;;;4.10;99.90;;;;;;5467092;26;20269;-80
2024/04/22 04:16:41;;;;;;;13.57;7.63;;;4.10;99.90;;;;;;5466409;26;20244;-80
2024/04/22 04:19:07;;;;;;;9.45;6.60;;;4.10;99.90;;;;;;5471032;26;20247;-81
2024/04/22 04:21:36;;;;;;;10.13;7.38;;;4.00;99.90;;;;;;5474621;25;20275;-81
2024/04/22 04:24:02;;;;;;;10.15;7.05;;;4.00;99.90;;;;;;5465272;25;20275;-80
2024/04/22 04:26:31;;;;;;;9.52;6.70;;;4.10;99.90;;;;;;5472759;26;20236;-80
2024/04/22 04:28:57;;;;;;;13.73;7.05;;;4.00;99.90;;;;;;5469834;26;20236;-80
2024/04/22 04:31:28;;;;;;;11.00;7.30;;;4.10;99.90;;;;;;5465419;26;20270;-79
2024/04/22 04:33:54;;;;;;;9.10;7.65;;;4.00;99.90;;;;;;5461337;26;20306;-82
2024/04/22 04:36:23;;;;;;;7.37;6.67;;;4.00;99.90;;;;;;5446541;26;20236;-82
2024/04/22 04:38:49;;;;;;;9.60;7.13;;;4.00;99.90;;;;;;5446967;26;20469;-80
2024/04/22 04:41:20;;;;;;;9.15;7.18;;;4.00;99.90;;;;;;5465832;26;20274;-81
2024/04/22 04:43:46;;;;;;;12.95;7.75;;;4.00;99.90;;;;;;5456605;26;20236;-82
2024/04/22 04:46:14;;;;;;;10.27;7.32;;;4.10;99.90;;;;;;5452855;26;20377;-81
2024/04/22 04:48:43;;;;;;;11.70;7.35;;;4.20;99.90;;;;;;5462355;26;20231;-83
2024/04/22 04:51:12;;;;;;;14.07;8.05;;;4.30;99.90;;;;;;5461502;26;20236;-80
2024/04/22 04:53:38;;;;;;;8.98;7.40;;;4.40;99.90;;;;;;5462412;26;20302;-82
2024/04/22 04:56:10;;;;;;;9.73;7.10;;;4.40;99.90;;;;;;5462066;26;20292;-82
2024/04/22 04:58:36;;;;;;;11.40;6.35;;;4.50;99.90;;;;;;5460986;26;20574;-80
2024/04/22 05:01:05;;;;;;;8.70;6.10;;;4.60;99.90;;;;;;5461981;26;20240;-81
2024/04/22 05:03:30;;;;;;;8.30;5.70;;;4.70;99.90;;;;;;5459329;26;20229;-80
2024/04/22 05:06:03;;;;;;;8.83;5.43;;;4.90;99.90;;;;;;5466996;26;20284;-81
2024/04/22 05:08:32;;;;;;;9.10;5.32;;;5.00;99.90;;;;;;5461670;26;20520;-81
2024/04/22 05:11:05;;;;;;;7.18;5.40;;;4.90;99.90;;;;;;5454800;26;20229;-80
2024/04/22 05:13:31;;;;;;;5.00;3.88;;;5.20;99.90;;;;;;5450023;26;20275;-80
2024/04/22 05:16:00;;;;;;;6.17;4.30;;;5.50;99.90;;;;;;5460721;26;20233;-79
2024/04/22 05:18:26;;;;;;;8.32;4.40;;;6.00;99.90;;;;;;5458994;26;20525;-81
2024/04/22 05:20:54;;;;;;;5.03;4.18;;;6.60;99.90;;;;;;5459276;26;20236;-82
2024/04/22 05:23:23;;;;;;;7.47;4.25;;;7.10;99.90;;;;;;5450572;26;20735;-81
2024/04/22 05:25:51;;;;;;;5.70;4.10;;;7.30;99.90;;;;;;5460196;26;20240;-83
2024/04/22 05:28:18;;;;;;;4.85;4.25;;;7.60;99.90;;;;;;5459264;26;20286;-82
2024/04/22 05:30:47;;;;;;;4.18;3.72;;;8.40;99.90;;;;;;5472096;25;20236;-79
2024/04/22 05:36:12;;;;;;;5.00;3.60;;;10.50;99.90;;;;;;5474489;25;20273;-79
2024/04/22 05:38:44;;;;;;;10.02;4.25;;;11.00;96.90;;;;;;5459988;26;20267;-78
2024/04/22 05:41:13;;;;;;;4.18;3.42;;;10.60;94.30;;;;;;5474048;26;20236;-80
2024/04/22 05:43:42;;;;;;;5.32;3.83;;;9.70;94.40;;;;;;5473674;26;20224;-80
2024/04/22 05:46:11;;;;;;;6.97;3.45;;;9.10;96.00;;;;;;5474623;26;20271;-78
2024/04/22 05:48:39;;;;;;;4.72;3.15;;;9.10;96.50;;;;;;5473676;26;20232;-78
2024/04/22 05:51:05;;;;;;;9.48;4.20;;;8.90;95.40;;;;;;5472353;26;20216;-79
2024/04/22 05:53:34;;;;;;;2.90;2.43;;;8.90;95.90;;;;;;5468472;26;20228;-80
2024/04/22 05:56:03;;;;;;;6.75;4.82;;;8.60;95.80;;;;;;5463787;26;20457;-78
2024/04/22 05:58:31;;;;;;;3.78;2.70;;;8.60;95.20;;;;;;5462986;26;20240;-82
2024/04/22 06:00:58;;;;;;;3.20;2.65;;;9.70;94.30;;;;;;5458846;26;20517;-80
2024/04/22 06:03:27;;;;;;;4.00;3.38;;;10.90;91.90;;;;;;5458571;26;20349;-80
2024/04/22 06:05:53;;;;;;;6.28;4.07;;;11.40;90.40;;;;;;5459426;26;20242;-80
2024/04/22 06:08:21;;;;;;;5.13;3.50;;;12.00;89.00;;;;;;5457236;26;20293;-79
2024/04/22 06:10:47;;;;;;;6.90;4.50;;;12.10;86.80;;;;;;5448679;26;20382;-80
2024/04/22 06:13:20;;;;;;;6.80;3.45;;;12.40;86.10;;;;;;5433394;26;20238;-79
2024/04/22 06:15:46;;;;;;;7.53;4.10;;;13.50;85.60;;;;;;5450066;26;20299;-79
2024/04/22 06:18:14;;;;;;;4.13;3.27;;;13.80;82.00;;;;;;5460061;26;21095;-79
2024/04/22 06:20:44;;;;;;;9.52;4.40;;;14.30;79.70;;;;;;5455999;26;20542;-81
2024/04/22 06:23:13;;;;;;;3.63;3.33;;;14.90;78.50;;;;;;5454265;26;20802;-81
2024/04/22 06:25:42;;;;;;;4.20;3.83;;;15.00;73.50;;;;;;5463630;26;20236;-82
2024/04/22 06:28:10;;;;;;;4.80;3.53;;;15.10;72.50;;;;;;5463820;26;20346;-82
2024/04/22 06:30:39;;;;;;;4.30;2.90;;;16.10;72.50;;;;;;5463197;26;20533;-83
2024/04/22 06:33:08;;;;;;;3.80;3.10;;;15.30;68.30;;;;;;5456297;26;20514;-83
2024/04/22 06:35:34;;;;;;;11.87;7.00;;;15.10;69.10;;;;;;5460573;26;20376;-82
2024/04/22 06:38:02;;;;;;;6.72;3.80;;;13.80;70.20;;;;;;5464134;26;20365;-81
2024/04/22 06:40:28;;;;;;;8.10;3.97;;;13.00;71.40;;;;;;5467060;26;20239;-81
2024/04/22 06:42:57;;;;;;;4.50;4.10;;;12.00;73.10;;;;;;5457104;26;20236;-81
2024/04/22 06:45:23;;;;;;;4.18;3.78;;;11.30;75.60;;;;;;5458060;26;20469;-82
2024/04/22 06:47:54;;;;;;;5.40;3.93;;;11.00;77.80;;;;;;5457281;26;20279;-80
2024/04/22 06:50:20;;;;;;;3.17;2.97;;;10.90;80.20;;;;;;5456812;26;20617;-79
2024/04/22 06:52:49;;;;;;;4.70;4.25;;;10.80;79.10;;;;;;5456519;26;20684;-80
2024/04/22 06:55:15;;;;;;;3.63;3.33;;;11.00;79.20;;;;;;5456772;26;20582;-81
2024/04/22 06:57:44;;;;;;;3.53;3.15;;;12.00;77.40;;;;;;5461751;26;20275;-81
2024/04/22 07:00:11;;;;;;;4.35;3.95;;;12.90;77.20;;;;;;5466063;26;20646;-79
2024/04/22 07:02:40;;;;;;;4.85;3.33;;;13.60;75.20;;;;;;5462372;26;20236;-80
2024/04/22 07:05:08;;;;;;;5.88;3.50;;;13.50;71.10;;;;;;5461017;26;20228;-80
2024/04/22 07:07:37;;;;;;;4.82;3.90;;;13.90;71.00;;;;;;5466476;26;20309;-82
2024/04/22 07:10:04;;;;;;;4.20;3.90;;;14.30;71.40;;;;;;5452239;26;20281;-81
2024/04/22 07:12:33;;;;;;;3.67;3.38;;;14.50;71.40;;;;;;5432089;26;20527;-80
2024/04/22 07:15:02;;;;;;;8.25;3.67;;;14.20;70.20;;;;;;5461636;26;20231;-81
2024/04/22 07:17:37;;;;;;;3.40;3.20;;;13.70;68.70;;;;;;5460460;26;20686;-81
2024/04/22 07:20:05;;;;;;;5.40;3.90;;;13.30;67.90;;;;;;5456260;26;20232;-80
2024/04/22 07:22:37;;;;;;;4.88;3.97;;;13.00;70.40;;;;;;5455700;26;20246;-80
2024/04/22 07:25:04;;;;;;;3.92;3.63;;;12.50;70.40;;;;;;5466018;26;20274;-80
2024/04/22 07:30:07;;;;;;;4.32;3.40;;;13.90;68.30;;;;;;5411402;20;20782;-76
2024/04/22 07:32:33;;;;;;;3.20;2.90;;;14.80;63.90;;;;;;5434533;26;20237;-75
2024/04/22 07:35:03;;;;;;;6.10;4.33;;;15.50;63.30;;;;;;5401215;26;20462;-74
2024/04/22 07:37:32;;;;;;;5.80;3.80;;;15.60;64.00;;;;;;5419941;26;20512;-76
2024/04/22 07:40:13;;;;;;;3.93;3.50;;;16.20;65.60;;;;;;5428122;26;20531;-76
2024/04/22 07:42:40;;;;;;;4.53;3.57;;;17.10;63.70;;;;;;5411610;26;20482;-75
2024/04/22 07:45:10;;;;;;;4.17;3.87;;;17.50;63.00;;;;;;5420902;26;20522;-77
2024/04/22 07:47:36;;;;;;;4.60;4.00;;;17.40;62.10;;;;;;5442827;26;20466;-74
2024/04/22 07:50:05;;;;;;;4.47;3.97;;;17.80;60.50;;;;;;5427239;26;20593;-73
2024/04/22 07:52:32;;;;;;;4.33;3.60;;;18.00;59.60;;;;;;5441759;26;20808;-78
2024/04/22 07:55:06;;;;;;;4.13;3.83;;;18.80;59.10;;;;;;5431551;26;20515;-77
2024/04/22 07:57:33;;;;;;;4.70;3.97;;;18.70;58.00;;;;;;5427732;26;20473;-75
2024/04/22 08:00:05;;;;;;;5.03;3.93;;;18.20;57.80;;;;;;5422961;26;20529;-79
2024/04/22 08:02:32;;;;;;;3.70;3.40;;;17.90;57.90;;;;;;5423317;26;20467;-78
2024/04/22 08:05:01;;;;;;;3.70;3.50;;;16.60;57.70;;;;;;5418990;26;21019;-78
2024/04/22 08:07:27;;;;;;;4.50;4.10;;;17.40;60.10;;;;;;5426777;26;21070;-76
2024/04/22 08:09:56;;;;;;;3.83;3.53;;;17.40;60.00;;;;;;5455151;26;20918;-80
2024/04/22 08:12:25;;;;;;;4.27;3.50;;;17.50;58.10;;;;;;5426075;26;20521;-79
2024/04/22 08:15:02;;;;;;;4.00;3.60;;;18.10;57.60;;;;;;5458994;21;20473;-79
2024/04/22 08:17:28;;;;;;;7.20;3.80;;;18.80;57.80;;;;;;5427308;26;20512;-80
2024/04/22 08:20:02;;;;;;;4.30;4.00;;;19.20;57.00;;;;;;5397824;26;20512;-80
2024/04/22 08:22:30;;;;;;;4.70;4.30;;;19.10;56.20;;;;;;5392799;26;20519;-80
2024/04/22 08:25:03;;;;;;;4.47;4.07;;;18.60;57.10;;;;;;5396155;26;20478;-80
2024/04/22 08:27:37;;;;;;;4.23;3.93;;;18.60;56.70;;;;;;5406871;26;20488;-80
2024/04/22 08:32:56;;;;;;;4.40;4.10;;;17.90;56.50;;;;;;5363304;26;20480;-80
2024/04/22 08:35:22;;;;;;;3.90;3.50;;;17.30;56.30;;;;;;5398791;26;20529;-81
2024/04/22 08:37:53;;;;;;;4.33;3.93;;;17.50;57.80;;;;;;5412574;26;20717;-80
2024/04/22 08:41:22;;;;;;;4.03;3.73;;;17.60;57.30;;;;;;5389753;26;20570;-81
2024/04/22 08:43:51;;;;;;;3.90;3.60;;;18.30;56.20;;;;;;5373584;26;20512;-79
2024/04/22 08:46:20;;;;;;;4.97;3.87;;;18.70;55.60;;;;;;5401797;26;20524;-79
2024/04/22 08:48:46;;;;;;;5.90;3.90;;;19.10;55.80;;;;;;5388292;26;20471;-81
2024/04/22 08:51:15;;;;;;;4.43;4.03;;;19.90;55.60;;;;;;5391173;26;20520;-81
2024/04/22 08:53:41;;;;;;;5.17;4.00;;;20.30;55.10;;;;;;5370626;26;20573;-79
2024/04/22 08:56:11;;;;;;;4.07;3.77;;;20.40;54.20;;;;;;5391639;26;20472;-80
2024/04/22 08:58:37;;;;;;;3.80;3.50;;;20.10;54.10;;;;;;5396211;26;20472;-80
2024/04/22 09:01:10;;;;;;;8.43;3.93;;;20.20;53.70;;;;;;5392659;26;20571;-79
2024/04/22 09:03:36;;;;;;;4.27;3.87;;;19.70;52.80;;;;;;5390127;26;20470;-80
2024/04/22 09:06:04;;;;;;;4.40;4.00;;;19.00;53.60;;;;;;5380178;26;20570;-82
2024/04/22 09:08:39;;;;;;;5.00;4.60;;;17.70;53.40;;;;;;5392732;26;20471;-79
2024/04/22 09:11:08;;;;;;;4.40;4.00;;;17.20;54.80;;;;;;5392655;26;20524;-83
2024/04/22 09:13:34;;;;;;;5.23;4.83;;;16.80;54.60;;;;;;5390012;26;20533;-82
2024/04/22 09:16:03;;;;;;;5.10;4.70;;;16.60;55.00;;;;;;5392872;26;20901;-80
2024/04/22 09:18:36;;;;;;;5.20;4.67;;;16.40;56.40;;;;;;5378380;26;21007;-81
2024/04/22 09:21:08;;;;;;;5.10;4.20;;;16.80;56.60;;;;;;5388100;26;20581;-79
2024/04/22 09:23:34;;;;;;;4.23;3.67;;;16.90;56.50;;;;;;5389510;26;20524;-80
2024/04/22 09:26:03;;;;;;;4.23;3.97;;;16.80;56.20;;;;;;5387227;26;20527;-79
2024/04/22 09:28:34;;;;;;;4.37;4.07;;;16.70;57.20;;;;;;5395127;26;20547;-80
2024/04/22 09:31:04;;;;;;;4.13;3.83;;;16.70;56.60;;;;;;5387815;26;20474;-82
2024/04/22 09:33:33;;;;;;;4.70;4.03;;;16.60;56.40;;;;;;5390088;26;20613;-81
2024/04/22 09:36:06;;;;;;;4.87;4.20;;;16.70;56.70;;;;;;5408563;26;20582;-82
2024/04/22 09:38:36;;;;;;;5.23;4.83;;;16.90;55.60;;;;;;5383738;26;20940;-79
2024/04/22 09:41:15;;;;;;;4.83;4.53;;;16.70;55.50;;;;;;5388943;26;20481;-80
2024/04/22 09:43:55;;;;;;;5.33;4.93;;;16.60;56.50;;;;;;5416613;26;20550;-79
2024/04/22 09:46:40;;;;;;;4.50;4.23;;;16.40;56.90;;;;;;5399623;26;20534;-80
2024/04/22 09:49:18;;;;;;;5.83;5.20;;;16.10;55.70;;;;;;5356510;26;20478;-80
2024/04/22 09:52:09;;;;;;;4.47;4.13;;;16.40;55.80;;;;;;5364480;26;20539;-81
2024/04/22 09:54:38;;;;;;;4.87;4.37;;;17.10;55.50;;;;;;5345192;26;20590;-80
2024/04/22 09:57:13;;;;;;;4.47;4.07;;;17.40;53.60;;;;;;5356768;26;20472;-78
2024/04/22 09:59:41;;;;;;;5.27;4.87;;;17.00;54.50;;;;;;5367013;26;21168;-81
2024/04/22 10:05:47;;;;;;;4.20;3.90;;;17.50;55.50;;;;;;5349676;26;20477;-82
2024/04/22 10:08:13;;;;;;;6.40;4.67;;;17.90;53.50;;;;;;5350689;26;20493;-82
2024/04/22 10:10:48;;;;;;;4.33;3.93;;;17.60;54.90;;;;;;5360417;26;20479;-80
2024/04/22 10:13:36;;;;;;;4.60;4.30;;;17.90;52.90;;;;;;5358423;26;20481;-80
2024/04/22 10:19:36;;;;;;;4.33;4.10;;;18.40;52.50;;;;;;5560281;25;20650;-76
2024/04/22 10:22:04;;;;;;;4.03;3.83;;;19.10;51.10;;;;;;5543666;25;20505;-76
2024/04/22 10:24:39;;;;;;;4.30;4.00;;;18.60;49.60;;;;;;5531764;25;20518;-78
2024/04/22 10:27:07;;;;;;;5.03;4.63;;;17.80;51.00;;;;;;5527457;25;20543;-76
2024/04/22 10:29:37;;;;;;;4.80;4.50;;;17.70;51.40;;;;;;5515894;25;20458;-77
2024/04/22 10:32:03;;;;;;;4.33;4.03;;;18.00;52.00;;;;;;5508761;25;20467;-75
2024/04/22 10:34:38;;;;;;;3.90;3.53;;;18.40;49.00;;;;;;5508137;25;20461;-76
2024/04/22 10:37:04;;;;;;;4.47;4.17;;;18.50;49.00;;;;;;5522697;25;20473;-77
2024/04/22 10:39:33;;;;;;;3.83;3.63;;;18.20;46.50;;;;;;5515636;25;21009;-76
2024/04/22 10:41:59;;;;;;;5.20;4.80;;;17.60;44.60;;;;;;5509846;25;20524;-76
2024/04/22 10:44:27;;;;;;;5.07;4.78;;;16.90;44.40;;;;;;5507779;26;20461;-76
2024/04/22 10:46:54;;;;;;;8.20;5.13;;;16.10;45.60;;;;;;5522506;25;20231;-76
2024/04/22 10:49:23;;;;;;;5.03;4.72;;;15.20;46.40;;;;;;5506966;25;20226;-76
2024/04/22 10:51:52;;;;;;;5.20;4.90;;;14.70;47.20;;;;;;5492308;26;20226;-77
2024/04/22 10:54:20;;;;;;;4.40;4.20;;;14.50;47.70;;;;;;5507382;26;20278;-76
2024/04/22 10:56:46;;;;;;;5.97;4.80;;;14.00;49.00;;;;;;5536442;25;20230;-77
2024/04/22 10:59:15;;;;;;;5.97;5.47;;;13.90;48.70;;;;;;5525533;25;20292;-76
2024/04/22 11:01:42;;;;;;;5.57;5.18;;;13.70;49.10;;;;;;5508318;25;20223;-76
2024/04/22 11:04:11;;;;;;;5.32;5.03;;;13.50;49.20;;;;;;5520751;25;20240;-76
2024/04/22 11:06:39;;;;;;;4.40;4.10;;;13.50;50.70;;;;;;5522940;25;20269;-77
2024/04/22 11:09:10;;;;;;;6.47;5.20;;;13.50;51.70;;;;;;5494688;25;20617;-78
2024/04/22 11:11:37;;;;;;;5.53;5.10;;;13.30;51.20;;;;;;5528774;25;20264;-76
2024/04/22 11:14:07;;;;;;;8.45;5.57;;;13.10;51.60;;;;;;5524827;25;20776;-76
2024/04/22 11:16:33;;;;;;;5.72;5.30;;;12.90;51.40;;;;;;5523480;25;20237;-79
2024/04/22 11:19:03;;;;;;;5.22;4.75;;;12.70;51.10;;;;;;5521866;25;20293;-77
2024/04/22 11:21:29;;;;;;;4.93;4.60;;;13.00;52.20;;;;;;5530465;25;20236;-77
2024/04/22 11:23:58;;;;;;;5.30;5.00;;;13.20;51.30;;;;;;5526716;25;20244;-77
2024/04/22 11:26:27;;;;;;;5.28;4.97;;;13.20;51.90;;;;;;5522787;25;20277;-76
2024/04/22 11:28:57;;;;;;;5.50;5.10;;;13.40;52.70;;;;;;5503216;26;20483;-75
2024/04/22 11:31:23;;;;;;;5.07;4.65;;;13.60;52.30;;;;;;5483188;26;20225;-74
2024/04/22 11:33:52;;;;;;;4.25;4.05;;;13.70;50.70;;;;;;5500157;25;20235;-76
2024/04/22 11:36:18;;;;;;;6.38;4.93;;;13.70;50.60;;;;;;5505765;26;20290;-77
2024/04/22 11:38:47;;;;;;;5.25;4.85;;;13.60;50.50;;;;;;5485600;26;20287;-75
2024/04/22 11:41:13;;;;;;;5.07;4.68;;;13.20;50.30;;;;;;5512325;25;20821;-76
2024/04/22 11:43:44;;;;;;;5.38;5.07;;;12.90;51.40;;;;;;5500667;25;20577;-74
2024/04/22 11:46:10;;;;;;;18.10;13.98;;;12.80;52.00;;;;;;5494078;26;20674;-77
2024/04/22 11:48:39;;;;;;;5.57;5.13;;;12.80;53.20;;;;;;5513225;25;20725;-74
2024/04/22 11:51:05;;;;;;;6.35;4.97;;;12.60;53.50;;;;;;5490966;26;20235;-76
2024/04/22 11:53:34;;;;;;;5.68;4.88;;;12.70;54.00;;;;;;5489865;26;20334;-73
2024/04/22 11:56:00;;;;;;;5.00;4.70;;;12.70;54.40;;;;;;5491463;26;20273;-76
2024/04/22 11:58:29;;;;;;;5.37;4.97;;;12.90;53.80;;;;;;5506128;26;20725;-79
2024/04/22 12:00:58;;;;;;;5.28;4.85;;;12.90;54.20;;;;;;5490301;26;20524;-75
2024/04/22 12:03:27;;;;;;;6.10;5.60;;;12.90;53.80;;;;;;5477568;26;20250;-75
2024/04/22 12:05:53;;;;;;;5.72;5.28;;;12.60;53.50;;;;;;5491886;26;20590;-73
2024/04/22 12:08:22;;;;;;;6.00;5.57;;;12.70;55.00;;;;;;5507244;26;20234;-78
2024/04/22 12:10:50;;;;;;;5.60;5.10;;;12.60;59.20;;;;;;5492107;26;20278;-77
2024/04/22 12:13:18;;;;;;;6.43;5.93;;;12.50;68.50;;;;;;5490671;26;20233;-76
2024/04/22 12:15:44;;;;;;;6.15;5.60;;;12.20;72.30;;;;;;5517715;26;20236;-74
2024/04/22 12:18:16;;;;;;;6.40;5.80;;;11.80;74.20;;;;;;5494186;25;20348;-76
2024/04/22 12:20:42;;;;;;;7.07;6.53;;;11.60;76.20;;;;;;5505903;26;20227;-75
2024/04/22 12:23:10;;;;;;;7.77;6.90;;;11.50;78.50;;;;;;5505107;26;20288;-78
2024/04/22 12:25:36;;;;;;;6.43;5.90;;;11.70;79.30;;;;;;5506118;26;20522;-78
2024/04/22 12:28:05;;;;;;;6.10;5.60;;;11.90;80.80;;;;;;5505944;26;20292;-74
2024/04/22 12:30:31;;;;;;;5.75;5.25;;;12.00;80.10;;;;;;5500443;26;20467;-76
2024/04/22 12:33:02;;;;;;;6.95;6.28;;;11.80;79.50;;;;;;5527186;25;20240;-73
2024/04/22 12:35:31;;;;;;;8.32;6.00;;;11.90;79.90;;;;;;5512068;25;20233;-74
2024/04/22 12:38:00;;;;;;;5.40;5.00;;;12.00;80.50;;;;;;5511569;25;20229;-75
2024/04/22 12:40:27;;;;;;;6.28;5.85;;;11.90;79.50;;;;;;5490255;26;20234;-75
2024/04/22 12:42:56;;;;;;;8.30;6.70;;;11.90;80.20;;;;;;5517461;26;20235;-75
2024/04/22 12:45:22;;;;;;;6.90;6.20;;;11.80;80.30;;;;;;5521523;25;20272;-76
2024/04/22 12:50:48;;;;;;;6.93;6.22;;;11.60;81.00;;;;;;5493036;26;20520;-73
2024/04/22 12:53:17;;;;;;;5.80;5.30;;;11.60;80.30;;;;;;5511553;26;20342;-73
2024/04/22 12:55:49;;;;;;;5.85;5.35;;;11.90;80.20;;;;;;5513231;25;20389;-75
2024/04/22 12:58:18;;;;;;;6.03;5.35;;;12.00;78.60;;;;;;5492576;25;20593;-73
2024/04/22 13:00:48;;;;;;;6.30;5.75;;;12.10;77.00;;;;;;5490529;26;20803;-76
2024/04/22 13:03:17;;;;;;;6.50;5.90;;;12.40;75.50;;;;;;5494283;26;20238;-75
2024/04/22 13:05:49;;;;;;;6.30;5.80;;;12.80;76.30;;;;;;5517131;26;20234;-79
2024/04/22 13:08:18;;;;;;;5.60;5.10;;;13.10;76.20;;;;;;5504389;26;20562;-75
2024/04/22 13:10:48;;;;;;;5.80;5.30;;;13.10;76.80;;;;;;5489903;26;20262;-73
2024/04/22 13:13:16;;;;;;;6.30;5.90;;;13.10;75.00;;;;;;5490223;26;20621;-72
2024/04/22 13:15:53;;;;;;;6.00;5.28;;;13.10;74.50;;;;;;5475778;26;20231;-75
2024/04/22 13:18:26;;;;;;;6.50;5.90;;;13.20;73.30;;;;;;5487853;26;20242;-78
2024/04/22 13:20:57;;;;;;;7.00;6.32;;;13.30;72.30;;;;;;5477498;26;20738;-76
2024/04/22 13:23:24;;;;;;;7.47;5.90;;;13.20;71.00;;;;;;5479355;26;20538;-79